CHX42 EDXR-EDXR
Flight info
| Callsign | CHX42 |
|---|---|
| Flight time | N/A |
| Altitude | 2500 |
| Route | VFR |
| Aircraft | EC45/L-VGD/A |
Departure
| Time | 2026-04-30 11:39 |
|---|---|
| Airport | Rendsburg-Schachtholm Airfield (EDXR) |
Arrival
| Time | N/A |
|---|---|
| Airport | Rendsburg-Schachtholm Airfield (EDXR) |
| Time | Latitude | Longitude | Altitude | Speed | Heading |
|---|---|---|---|---|---|
| 2026-04-30 11:23 | 54.21699 | 9.59985 | 28 ft | 0 kts | 200° |
| 2026-04-30 11:36 | 54.21693 | 9.59972 | 29 ft | 3 kts | 279° |
| 2026-04-30 11:36 | 54.21703 | 9.59929 | 28 ft | 8 kts | 278° |
| 2026-04-30 11:36 | 54.21721 | 9.59864 | 29 ft | 10 kts | 279° |
| 2026-04-30 11:37 | 54.21780 | 9.59693 | 28 ft | 0 kts | 34° |
| 2026-04-30 11:38 | 54.21782 | 9.59696 | 37 ft | 3 kts | 39° |
| 2026-04-30 11:38 | 54.21966 | 9.59917 | 68 ft | 65 kts | 35° |
| 2026-04-30 11:38 | 54.22443 | 9.60499 | 270 ft | 102 kts | 37° |
| 2026-04-30 11:38 | 54.22993 | 9.61508 | 504 ft | 128 kts | 64° |
| 2026-04-30 11:39 | 54.23122 | 9.63084 | 779 ft | 141 kts | 90° |
| 2026-04-30 11:39 | 54.23078 | 9.64808 | 965 ft | 150 kts | 89° |
| 2026-04-30 11:39 | 54.23045 | 9.66611 | 1120 ft | 155 kts | 89° |
| 2026-04-30 11:39 | 54.23019 | 9.68497 | 1109 ft | 160 kts | 89° |
| 2026-04-30 11:40 | 54.22992 | 9.70391 | 1072 ft | 158 kts | 89° |
| 2026-04-30 11:40 | 54.22964 | 9.72259 | 1066 ft | 156 kts | 89° |
| 2026-04-30 11:40 | 54.22975 | 9.74094 | 1080 ft | 152 kts | 80° |
| 2026-04-30 11:40 | 54.23176 | 9.75860 | 1087 ft | 151 kts | 75° |
| 2026-04-30 11:41 | 54.23419 | 9.77622 | 1080 ft | 153 kts | 73° |
| 2026-04-30 11:41 | 54.23676 | 9.79396 | 1072 ft | 154 kts | 73° |
| 2026-04-30 11:41 | 54.23941 | 9.81167 | 1069 ft | 154 kts | 73° |
| 2026-04-30 11:41 | 54.24206 | 9.82928 | 1062 ft | 153 kts | 73° |
| 2026-04-30 11:42 | 54.24472 | 9.84682 | 1062 ft | 152 kts | 75° |
| 2026-04-30 11:42 | 54.24753 | 9.86428 | 1070 ft | 152 kts | 75° |
| 2026-04-30 11:42 | 54.25033 | 9.88176 | 1074 ft | 152 kts | 75° |
| 2026-04-30 11:42 | 54.25308 | 9.89897 | 1078 ft | 152 kts | 75° |
| 2026-04-30 11:43 | 54.25590 | 9.91672 | 1075 ft | 153 kts | 75° |
| 2026-04-30 11:43 | 54.25865 | 9.93397 | 1075 ft | 153 kts | 75° |
| 2026-04-30 11:43 | 54.26143 | 9.95147 | 1073 ft | 152 kts | 75° |
| 2026-04-30 11:43 | 54.26419 | 9.96886 | 1078 ft | 152 kts | 75° |
| 2026-04-30 11:44 | 54.26697 | 9.98647 | 1077 ft | 154 kts | 74° |
| 2026-04-30 11:44 | 54.26975 | 10.00404 | 1078 ft | 153 kts | 75° |
| 2026-04-30 11:44 | 54.27253 | 10.02165 | 1077 ft | 153 kts | 75° |
| 2026-04-30 11:44 | 54.27528 | 10.03921 | 1072 ft | 152 kts | 75° |
| 2026-04-30 11:45 | 54.27804 | 10.05677 | 1076 ft | 154 kts | 75° |
| 2026-04-30 11:45 | 54.28082 | 10.07439 | 1077 ft | 153 kts | 75° |
| 2026-04-30 11:45 | 54.28356 | 10.09186 | 1078 ft | 152 kts | 75° |
| 2026-04-30 11:45 | 54.28632 | 10.10945 | 1079 ft | 154 kts | 75° |
| 2026-04-30 11:46 | 54.28913 | 10.12728 | 1077 ft | 156 kts | 75° |
| 2026-04-30 11:46 | 54.29193 | 10.14510 | 1064 ft | 154 kts | 75° |
| 2026-04-30 11:46 | 54.29471 | 10.16277 | 1064 ft | 154 kts | 75° |
| 2026-04-30 11:46 | 54.29744 | 10.18020 | 1053 ft | 150 kts | 74° |
| 2026-04-30 11:47 | 54.30010 | 10.19722 | 1052 ft | 147 kts | 74° |
| 2026-04-30 11:47 | 54.30275 | 10.21420 | 1057 ft | 148 kts | 74° |
| 2026-04-30 11:47 | 54.30539 | 10.23108 | 1060 ft | 147 kts | 75° |
| 2026-04-30 11:47 | 54.30804 | 10.24805 | 1065 ft | 147 kts | 74° |
| 2026-04-30 11:48 | 54.31077 | 10.26491 | 1060 ft | 148 kts | 74° |
| 2026-04-30 11:48 | 54.31351 | 10.28185 | 1058 ft | 147 kts | 74° |
| 2026-04-30 11:48 | 54.31624 | 10.29860 | 1062 ft | 146 kts | 73° |
| 2026-04-30 11:48 | 54.31898 | 10.31544 | 1068 ft | 147 kts | 73° |
| 2026-04-30 11:49 | 54.32175 | 10.33243 | 1068 ft | 147 kts | 73° |
| 2026-04-30 11:49 | 54.32450 | 10.34921 | 1070 ft | 146 kts | 73° |
| 2026-04-30 11:49 | 54.32721 | 10.36595 | 1074 ft | 146 kts | 73° |
| 2026-04-30 11:49 | 54.33003 | 10.38271 | 1078 ft | 148 kts | 72° |
| 2026-04-30 11:50 | 54.33304 | 10.39937 | 1071 ft | 147 kts | 72° |
| 2026-04-30 11:50 | 54.33605 | 10.41592 | 1070 ft | 144 kts | 72° |
| 2026-04-30 11:50 | 54.33901 | 10.43227 | 1077 ft | 144 kts | 71° |
| 2026-04-30 11:50 | 54.34210 | 10.44871 | 1080 ft | 145 kts | 71° |
| 2026-04-30 11:51 | 54.34528 | 10.46500 | 1078 ft | 145 kts | 70° |
| 2026-04-30 11:51 | 54.34849 | 10.48131 | 1078 ft | 145 kts | 70° |
| 2026-04-30 11:51 | 54.35175 | 10.49768 | 1081 ft | 146 kts | 69° |
| 2026-04-30 11:51 | 54.35507 | 10.51427 | 1081 ft | 149 kts | 70° |
| 2026-04-30 11:52 | 54.35848 | 10.53120 | 1065 ft | 149 kts | 70° |
| 2026-04-30 11:52 | 54.36185 | 10.54796 | 1070 ft | 150 kts | 69° |
| 2026-04-30 11:52 | 54.36527 | 10.56484 | 1069 ft | 148 kts | 69° |
| 2026-04-30 11:52 | 54.36851 | 10.58115 | 1070 ft | 142 kts | 70° |
| 2026-04-30 11:53 | 54.37163 | 10.59756 | 1086 ft | 147 kts | 70° |
| 2026-04-30 11:53 | 54.37485 | 10.61446 | 1083 ft | 151 kts | 70° |
| 2026-04-30 11:53 | 54.37811 | 10.63172 | 1075 ft | 153 kts | 70° |
| 2026-04-30 11:53 | 54.38141 | 10.64918 | 1071 ft | 155 kts | 70° |
| 2026-04-30 11:54 | 54.38471 | 10.66680 | 1071 ft | 156 kts | 70° |
| 2026-04-30 11:54 | 54.38798 | 10.68450 | 1063 ft | 155 kts | 70° |
| 2026-04-30 11:54 | 54.39123 | 10.70215 | 1063 ft | 155 kts | 70° |
| 2026-04-30 11:54 | 54.39449 | 10.71982 | 1067 ft | 155 kts | 70° |
| 2026-04-30 11:55 | 54.39768 | 10.73737 | 1067 ft | 153 kts | 70° |
| 2026-04-30 11:55 | 54.40087 | 10.75479 | 1071 ft | 153 kts | 70° |
| 2026-04-30 11:55 | 54.40409 | 10.77218 | 1073 ft | 153 kts | 70° |
| 2026-04-30 11:55 | 54.40730 | 10.78941 | 1071 ft | 154 kts | 70° |
| 2026-04-30 11:56 | 54.41054 | 10.80687 | 1074 ft | 154 kts | 71° |
| 2026-04-30 11:56 | 54.41389 | 10.82468 | 1074 ft | 155 kts | 71° |
| 2026-04-30 11:56 | 54.41711 | 10.84207 | 1070 ft | 155 kts | 70° |
| 2026-04-30 11:56 | 54.42034 | 10.85967 | 1073 ft | 155 kts | 70° |
| 2026-04-30 11:57 | 54.42360 | 10.87740 | 1069 ft | 156 kts | 70° |
| 2026-04-30 11:57 | 54.42678 | 10.89501 | 1067 ft | 154 kts | 70° |
| 2026-04-30 11:57 | 54.42997 | 10.91258 | 1068 ft | 154 kts | 70° |
| 2026-04-30 11:57 | 54.43322 | 10.93010 | 1071 ft | 154 kts | 70° |
| 2026-04-30 11:58 | 54.43646 | 10.94761 | 1072 ft | 154 kts | 70° |
| 2026-04-30 11:58 | 54.43976 | 10.96534 | 1070 ft | 156 kts | 70° |
| 2026-04-30 11:58 | 54.44305 | 10.98315 | 1072 ft | 157 kts | 70° |
| 2026-04-30 11:58 | 54.44636 | 11.00099 | 1069 ft | 156 kts | 71° |
| 2026-04-30 11:59 | 54.44882 | 11.01893 | 1055 ft | 152 kts | 78° |
| 2026-04-30 11:59 | 54.45049 | 11.03675 | 1075 ft | 152 kts | 80° |
| 2026-04-30 11:59 | 54.45197 | 11.05462 | 1078 ft | 151 kts | 80° |
| 2026-04-30 11:59 | 54.45340 | 11.07257 | 1075 ft | 152 kts | 80° |
| 2026-04-30 12:00 | 54.45479 | 11.09050 | 1070 ft | 149 kts | 80° |
| 2026-04-30 12:00 | 54.45431 | 11.10746 | 1045 ft | 138 kts | 102° |
| 2026-04-30 12:00 | 54.45200 | 11.12314 | 938 ft | 133 kts | 103° |
| 2026-04-30 12:00 | 54.44978 | 11.13825 | 830 ft | 128 kts | 103° |
| 2026-04-30 12:01 | 54.44762 | 11.15278 | 651 ft | 127 kts | 104° |
| 2026-04-30 12:01 | 54.44525 | 11.16709 | 598 ft | 120 kts | 105° |
| 2026-04-30 12:01 | 54.44291 | 11.18031 | 478 ft | 110 kts | 107° |
| 2026-04-30 12:01 | 54.44096 | 11.19075 | 415 ft | 70 kts | 107° |
| 2026-04-30 12:02 | 54.43973 | 11.19517 | 230 ft | 18 kts | 212° |
| 2026-04-30 12:02 | 54.43901 | 11.19480 | 129 ft | 10 kts | 240° |
| 2026-04-30 12:02 | 54.43909 | 11.19427 | 85 ft | 6 kts | 242° |
| 2026-04-30 12:02 | 54.43907 | 11.19388 | 40 ft | 1 kts | 243° |
| 2026-04-30 12:03 | 54.43907 | 11.19381 | 26 ft | 0 kts | 243° |